This is the latest recevied weather packets stored in our database for station/object KN6ZYR. If no packets are shown the sender has not sent any weather packets the latest 10 day(s).
| Time | Temp. | Humidity | Pressure | Rain* | Wind** | Luminosity | Snow |
|---|---|---|---|---|---|---|---|
| 1777527248 | 13.89° C | 39% | 1021 hPa | 0 mm | - | 0 W/m² | - |
| 1777526944 | 13.89° C | 39% | 1021.3 hPa | 0 mm | - | 0 W/m² | - |
| 1777526640 | 13.89° C | 39% | 1021.3 hPa | 0 mm | - | 0 W/m² | - |
| 1777526334 | 13.89° C | 38% | 1021.3 hPa | 0 mm | - | 0 W/m² | - |
| 1777526030 | 13.89° C | 39% | 1021.3 hPa | 0 mm | - | 0 W/m² | - |
| 1777525727 | 13.89° C | 40% | 1021.4 hPa | 0 mm | - | 0 W/m² | - |
| 1777525424 | 13.89° C | 40% | 1021.2 hPa | 0 mm | - | 0 W/m² | - |
| 1777525120 | 12.78° C | 42% | 1021.4 hPa | 0 mm | - | 0 W/m² | - |
| 1777524817 | 13.33° C | 41% | 1021.4 hPa | 0 mm | - | 0 W/m² | - |
| 1777524515 | 12.78° C | 42% | 1021.3 hPa | 0 mm | - | 0 W/m² | - |
| 1777524212 | 12.78° C | 40% | 1021.2 hPa | 0 mm | - | 0 W/m² | - |
| 1777523907 | 13.33° C | 40% | 1021 hPa | 0 mm | - | 0 W/m² | - |
| 1777523605 | 13.33° C | 39% | 1020.8 hPa | 0 mm | - | 0 W/m² | - |
| 1777523301 | 13.33° C | 41% | 1021.2 hPa | 0 mm | - | 0 W/m² | - |
| 1777522996 | 13.33° C | 38% | 1020.8 hPa | 0 mm | - | 0 W/m² | - |
| 1777522695 | 13.89° C | 38% | 1020.8 hPa | 0 mm | - | 0 W/m² | - |
| 1777522391 | 13.33° C | 38% | 1020.7 hPa | 0 mm | - | 0 W/m² | - |
| 1777522088 | 13.89° C | 39% | 1020.4 hPa | 0 mm | - | 0 W/m² | - |
| 1777521785 | 14.44° C | 38% | 1020.4 hPa | 0 mm | - | 0 W/m² | - |
| 1777521481 | 14.44° C | 35% | 1020.1 hPa | 0 mm | - | 0 W/m² | - |
| 1777521178 | 15° C | 35% | 1020.1 hPa | 0 mm | - | 0 W/m² | - |
| 1777520875 | 14.44° C | 37% | 1020 hPa | 0 mm | - | 0 W/m² | - |
| 1777520572 | 14.44° C | 36% | 1020.1 hPa | 0 mm | - | 0 W/m² | - |
| 1777520269 | 15° C | 34% | 1020 hPa | 0 mm | - | 0 W/m² | - |
| 1777519967 | 15° C | 34% | 1020.1 hPa | 0 mm | - | 0 W/m² | - |
* Rain latest hour (hover to see other rain measurements)
** Current wind speed in m/s (hover to see current wind gust speed)